sensor_id;sensor_type;location;lat;lon;timestamp;pressure;altitude;pressure_sealevel;temperature;humidity
59063;BME280;44851;45.648;9.004;2022-09-09T00:06:52;98615.47;;;22.37;60.01
59063;BME280;44851;45.648;9.004;2022-09-09T00:09:22;98609.16;;;22.38;60.12
59063;BME280;44851;45.648;9.004;2022-09-09T00:13:05;98610.50;;;22.28;59.74
59063;BME280;44851;45.648;9.004;2022-09-09T00:15:13;98610.03;;;22.31;60.14
59063;BME280;44851;45.648;9.004;2022-09-09T00:20:49;98611.97;;;22.24;60.51
59063;BME280;44851;45.648;9.004;2022-09-09T00:23:28;98605.34;;;22.15;61.42
59063;BME280;44851;45.648;9.004;2022-09-09T00:28:26;98603.16;;;22.12;61.60
59063;BME280;44851;45.648;9.004;2022-09-09T00:30:52;98595.09;;;22.19;61.71
59063;BME280;44851;45.648;9.004;2022-09-09T00:33:20;98591.75;;;22.12;61.77
59063;BME280;44851;45.648;9.004;2022-09-09T00:35:53;98589.16;;;22.05;62.48
59063;BME280;44851;45.648;9.004;2022-09-09T00:43:32;98574.09;;;22.17;61.94
59063;BME280;44851;45.648;9.004;2022-09-09T00:46:16;98563.78;;;22.09;62.14
59063;BME280;44851;45.648;9.004;2022-09-09T00:49:03;98558.34;;;22.04;62.57
59063;BME280;44851;45.648;9.004;2022-09-09T00:51:59;98551.13;;;21.93;62.65
59063;BME280;44851;45.648;9.004;2022-09-09T00:57:33;98540.66;;;21.98;62.64
59063;BME280;44851;45.648;9.004;2022-09-09T01:03:18;98534.66;;;21.84;63.16
59063;BME280;44851;45.648;9.004;2022-09-09T01:09:10;98540.66;;;21.98;62.62
59063;BME280;44851;45.648;9.004;2022-09-09T01:25:28;98533.38;;;21.75;63.60
59063;BME280;44851;45.648;9.004;2022-09-09T01:28:08;98527.25;;;21.93;63.05
59063;BME280;44851;45.648;9.004;2022-09-09T01:30:38;98524.97;;;21.78;63.89
59063;BME280;44851;45.648;9.004;2022-09-09T01:33:04;98529.78;;;21.88;63.75
59063;BME280;44851;45.648;9.004;2022-09-09T01:38:00;98543.19;;;21.93;63.40
59063;BME280;44851;45.648;9.004;2022-09-09T01:40:26;98551.28;;;21.98;63.27
59063;BME280;44851;45.648;9.004;2022-09-09T01:42:52;98548.75;;;22.03;63.45
59063;BME280;44851;45.648;9.004;2022-09-09T01:45:18;98550.38;;;22.04;62.73
59063;BME280;44851;45.648;9.004;2022-09-09T01:47:44;98557.28;;;22.05;63.18
59063;BME280;44851;45.648;9.004;2022-09-09T01:50:13;98542.13;;;21.94;63.20
59063;BME280;44851;45.648;9.004;2022-09-09T01:52:40;98530.03;;;21.98;63.55
59063;BME280;44851;45.648;9.004;2022-09-09T01:55:06;98520.91;;;21.94;63.32
59063;BME280;44851;45.648;9.004;2022-09-09T01:58:15;98525.50;;;21.87;63.30
59063;BME280;44851;45.648;9.004;2022-09-09T02:01:06;98543.00;;;22.06;63.09
59063;BME280;44851;45.648;9.004;2022-09-09T02:03:35;98552.00;;;22.05;63.17
59063;BME280;44851;45.648;9.004;2022-09-09T02:06:12;98557.75;;;22.02;62.78
59063;BME280;44851;45.648;9.004;2022-09-09T02:08:47;98562.44;;;22.18;62.21
59063;BME280;44851;45.648;9.004;2022-09-09T02:11:16;98563.69;;;22.16;62.38
59063;BME280;44851;45.648;9.004;2022-09-09T02:13:47;98548.59;;;22.16;62.70
59063;BME280;44851;45.648;9.004;2022-09-09T02:16:35;98538.84;;;22.10;62.46
59063;BME280;44851;45.648;9.004;2022-09-09T02:19:25;98533.47;;;22.17;62.69
59063;BME280;44851;45.648;9.004;2022-09-09T02:21:59;98532.19;;;22.19;62.64
59063;BME280;44851;45.648;9.004;2022-09-09T02:24:26;98535.91;;;22.18;62.43
59063;BME280;44851;45.648;9.004;2022-09-09T02:26:53;98543.28;;;22.16;62.40
59063;BME280;44851;45.648;9.004;2022-09-09T02:29:33;98540.63;;;22.16;62.63
59063;BME280;44851;45.648;9.004;2022-09-09T02:32:02;98527.38;;;22.16;63.14
59063;BME280;44851;45.648;9.004;2022-09-09T02:34:31;98527.94;;;22.18;62.78
59063;BME280;44851;45.648;9.004;2022-09-09T02:36:59;98527.59;;;22.26;62.51
59063;BME280;44851;45.648;9.004;2022-09-09T02:39:26;98517.31;;;22.18;62.70
59063;BME280;44851;45.648;9.004;2022-09-09T02:41:51;98529.16;;;22.04;63.64
59063;BME280;44851;45.648;9.004;2022-09-09T02:44:18;98528.88;;;21.94;64.05
59063;BME280;44851;45.648;9.004;2022-09-09T02:49:23;98552.34;;;22.09;67.26
59063;BME280;44851;45.648;9.004;2022-09-09T02:52:14;98548.63;;;21.79;68.34
59063;BME280;44851;45.648;9.004;2022-09-09T02:54:41;98535.66;;;21.71;68.97
59063;BME280;44851;45.648;9.004;2022-09-09T02:57:14;98530.25;;;21.78;70.36
59063;BME280;44851;45.648;9.004;2022-09-09T02:59:43;98526.22;;;21.75;69.71
59063;BME280;44851;45.648;9.004;2022-09-09T03:02:09;98529.91;;;21.74;70.89
59063;BME280;44851;45.648;9.004;2022-09-09T03:04:35;98542.88;;;21.83;70.62
59063;BME280;44851;45.648;9.004;2022-09-09T03:07:00;98537.06;;;21.74;70.60
59063;BME280;44851;45.648;9.004;2022-09-09T03:09:26;98539.34;;;21.70;70.55
59063;BME280;44851;45.648;9.004;2022-09-09T03:11:52;98543.47;;;21.66;71.35
59063;BME280;44851;45.648;9.004;2022-09-09T03:14:17;98538.88;;;21.73;71.57
59063;BME280;44851;45.648;9.004;2022-09-09T03:16:46;98542.72;;;21.77;71.17
59063;BME280;44851;45.648;9.004;2022-09-09T03:19:12;98546.59;;;21.63;70.20
59063;BME280;44851;45.648;9.004;2022-09-09T03:21:37;98546.72;;;21.68;70.99
59063;BME280;44851;45.648;9.004;2022-09-09T03:24:03;98549.59;;;21.67;70.51
59063;BME280;44851;45.648;9.004;2022-09-09T03:26:29;98548.13;;;21.71;71.41
59063;BME280;44851;45.648;9.004;2022-09-09T03:28:56;98534.94;;;21.64;70.59
59063;BME280;44851;45.648;9.004;2022-09-09T03:31:21;98532.84;;;21.66;71.31
59063;BME280;44851;45.648;9.004;2022-09-09T03:33:47;98531.69;;;21.62;71.41
59063;BME280;44851;45.648;9.004;2022-09-09T03:36:13;98526.84;;;21.59;70.84
59063;BME280;44851;45.648;9.004;2022-09-09T03:38:39;98534.72;;;21.66;70.94
59063;BME280;44851;45.648;9.004;2022-09-09T03:41:04;98536.41;;;21.60;71.04
59063;BME280;44851;45.648;9.004;2022-09-09T03:43:33;98534.19;;;21.57;70.91
59063;BME280;44851;45.648;9.004;2022-09-09T03:45:58;98535.44;;;21.54;71.55
59063;BME280;44851;45.648;9.004;2022-09-09T03:48:24;98535.22;;;21.56;71.90
59063;BME280;44851;45.648;9.004;2022-09-09T03:50:52;98534.66;;;21.54;71.95
59063;BME280;44851;45.648;9.004;2022-09-09T03:53:19;98549.94;;;21.52;71.77
59063;BME280;44851;45.648;9.004;2022-09-09T03:55:50;98543.03;;;21.51;71.97
59063;BME280;44851;45.648;9.004;2022-09-09T03:58:20;98539.28;;;21.40;70.97
59063;BME280;44851;45.648;9.004;2022-09-09T04:00:57;98545.69;;;21.51;71.24
59063;BME280;44851;45.648;9.004;2022-09-09T04:03:23;98543.91;;;21.45;70.88
59063;BME280;44851;45.648;9.004;2022-09-09T04:05:53;98545.38;;;21.41;71.81
59063;BME280;44851;45.648;9.004;2022-09-09T04:08:22;98553.13;;;21.42;72.09
59063;BME280;44851;45.648;9.004;2022-09-09T04:10:48;98547.06;;;21.35;72.31
59063;BME280;44851;45.648;9.004;2022-09-09T04:13:15;98543.34;;;21.43;71.93
59063;BME280;44851;45.648;9.004;2022-09-09T04:15:43;98552.59;;;21.34;72.58
59063;BME280;44851;45.648;9.004;2022-09-09T04:18:11;98549.22;;;21.45;72.93
59063;BME280;44851;45.648;9.004;2022-09-09T04:20:37;98560.56;;;21.52;72.95
59063;BME280;44851;45.648;9.004;2022-09-09T04:23:03;98561.59;;;21.51;72.53
59063;BME280;44851;45.648;9.004;2022-09-09T04:25:29;98562.63;;;21.50;73.08
59063;BME280;44851;45.648;9.004;2022-09-09T04:27:55;98558.94;;;21.51;72.73
59063;BME280;44851;45.648;9.004;2022-09-09T04:30:21;98569.72;;;21.38;73.25
59063;BME280;44851;45.648;9.004;2022-09-09T04:32:47;98572.47;;;21.24;70.92
59063;BME280;44851;45.648;9.004;2022-09-09T04:35:12;98563.19;;;21.15;70.34
59063;BME280;44851;45.648;9.004;2022-09-09T04:37:38;98571.88;;;20.97;68.55
59063;BME280;44851;45.648;9.004;2022-09-09T04:40:03;98572.81;;;20.85;69.26
59063;BME280;44851;45.648;9.004;2022-09-09T04:42:29;98568.84;;;20.69;69.73
59063;BME280;44851;45.648;9.004;2022-09-09T04:44:54;98572.31;;;20.69;69.31
59063;BME280;44851;45.648;9.004;2022-09-09T04:47:20;98588.41;;;20.68;69.39
59063;BME280;44851;45.648;9.004;2022-09-09T04:49:46;98588.97;;;20.45;68.96
59063;BME280;44851;45.648;9.004;2022-09-09T04:52:11;98585.22;;;20.59;68.85
59063;BME280;44851;45.648;9.004;2022-09-09T04:54:37;98585.13;;;20.72;69.20
59063;BME280;44851;45.648;9.004;2022-09-09T04:57:02;98591.78;;;20.50;68.84
59063;BME280;44851;45.648;9.004;2022-09-09T04:59:27;98593.66;;;20.43;68.73
59063;BME280;44851;45.648;9.004;2022-09-09T05:01:53;98595.91;;;20.39;69.36
59063;BME280;44851;45.648;9.004;2022-09-09T05:04:20;98594.66;;;20.48;69.22
59063;BME280;44851;45.648;9.004;2022-09-09T05:06:45;98592.22;;;20.47;68.96
59063;BME280;44851;45.648;9.004;2022-09-09T05:09:11;98592.03;;;20.42;68.81
59063;BME280;44851;45.648;9.004;2022-09-09T05:11:36;98594.72;;;20.29;69.10
59063;BME280;44851;45.648;9.004;2022-09-09T05:14:02;98597.13;;;20.43;69.10
59063;BME280;44851;45.648;9.004;2022-09-09T05:16:28;98603.22;;;20.44;67.46
59063;BME280;44851;45.648;9.004;2022-09-09T05:18:53;98594.31;;;20.32;66.82
59063;BME280;44851;45.648;9.004;2022-09-09T05:21:22;98593.03;;;20.47;68.61
59063;BME280;44851;45.648;9.004;2022-09-09T05:23:48;98597.94;;;20.37;67.91
59063;BME280;44851;45.648;9.004;2022-09-09T05:26:19;98602.81;;;20.47;67.58
59063;BME280;44851;45.648;9.004;2022-09-09T05:28:45;98603.41;;;20.49;67.90
59063;BME280;44851;45.648;9.004;2022-09-09T05:31:12;98594.91;;;20.34;66.91
59063;BME280;44851;45.648;9.004;2022-09-09T05:33:42;98595.94;;;20.33;66.09
59063;BME280;44851;45.648;9.004;2022-09-09T05:36:10;98593.53;;;20.24;65.06
59063;BME280;44851;45.648;9.004;2022-09-09T05:41:04;98593.56;;;20.18;65.37
59063;BME280;44851;45.648;9.004;2022-09-09T05:43:30;98604.44;;;20.03;65.08
59063;BME280;44851;45.648;9.004;2022-09-09T05:46:03;98604.03;;;19.99;63.31
59063;BME280;44851;45.648;9.004;2022-09-09T05:48:30;98600.59;;;19.92;64.33
59063;BME280;44851;45.648;9.004;2022-09-09T05:50:57;98606.06;;;19.97;64.63
59063;BME280;44851;45.648;9.004;2022-09-09T05:53:23;98607.09;;;19.96;64.48
59063;BME280;44851;45.648;9.004;2022-09-09T05:55:48;98599.38;;;19.95;64.68
59063;BME280;44851;45.648;9.004;2022-09-09T05:58:14;98596.94;;;19.87;63.93
59063;BME280;44851;45.648;9.004;2022-09-09T06:00:42;98600.63;;;19.86;64.98
59063;BME280;44851;45.648;9.004;2022-09-09T06:03:11;98612.06;;;19.73;64.61
59063;BME280;44851;45.648;9.004;2022-09-09T06:05:36;98614.31;;;19.63;65.17
59063;BME280;44851;45.648;9.004;2022-09-09T06:08:02;98616.31;;;19.74;64.92
59063;BME280;44851;45.648;9.004;2022-09-09T06:10:28;98632.56;;;19.84;64.80
59063;BME280;44851;45.648;9.004;2022-09-09T06:12:53;98642.97;;;19.72;64.88
59063;BME280;44851;45.648;9.004;2022-09-09T06:15:19;98637.69;;;19.59;64.93
59063;BME280;44851;45.648;9.004;2022-09-09T06:17:44;98639.50;;;19.79;65.07
59063;BME280;44851;45.648;9.004;2022-09-09T06:20:10;98641.72;;;19.88;64.77
59063;BME280;44851;45.648;9.004;2022-09-09T06:22:36;98646.59;;;19.85;64.41
59063;BME280;44851;45.648;9.004;2022-09-09T06:25:01;98649.63;;;19.95;64.98
59063;BME280;44851;45.648;9.004;2022-09-09T06:27:27;98654.72;;;20.03;65.46
59063;BME280;44851;45.648;9.004;2022-09-09T06:29:52;98653.91;;;19.96;64.80
59063;BME280;44851;45.648;9.004;2022-09-09T06:32:18;98654.28;;;20.06;65.48
59063;BME280;44851;45.648;9.004;2022-09-09T06:34:43;98656.31;;;20.04;65.16
59063;BME280;44851;45.648;9.004;2022-09-09T06:37:10;98650.59;;;20.07;64.19
59063;BME280;44851;45.648;9.004;2022-09-09T06:39:35;98653.50;;;19.99;64.45
59063;BME280;44851;45.648;9.004;2022-09-09T06:42:01;98649.09;;;19.73;63.14
59063;BME280;44851;45.648;9.004;2022-09-09T06:44:26;98645.78;;;19.91;64.69
59063;BME280;44851;45.648;9.004;2022-09-09T06:46:52;98646.56;;;19.98;63.92
59063;BME280;44851;45.648;9.004;2022-09-09T06:49:17;98655.31;;;19.92;63.28
59063;BME280;44851;45.648;9.004;2022-09-09T06:51:43;98655.50;;;19.97;64.02
59063;BME280;44851;45.648;9.004;2022-09-09T06:54:10;98649.66;;;19.82;63.71
59063;BME280;44851;45.648;9.004;2022-09-09T06:56:38;98647.78;;;19.95;64.25
59063;BME280;44851;45.648;9.004;2022-09-09T06:59:06;98651.06;;;19.91;64.20
59063;BME280;44851;45.648;9.004;2022-09-09T07:01:36;98656.78;;;19.88;64.18
59063;BME280;44851;45.648;9.004;2022-09-09T07:04:03;98653.91;;;19.96;63.49
59063;BME280;44851;45.648;9.004;2022-09-09T07:06:34;98656.31;;;20.04;63.98
59063;BME280;44851;45.648;9.004;2022-09-09T07:09:05;98650.81;;;20.06;63.84
59063;BME280;44851;45.648;9.004;2022-09-09T07:11:34;98648.94;;;20.19;62.42
59063;BME280;44851;45.648;9.004;2022-09-09T07:14:02;98660.31;;;20.27;62.79
59063;BME280;44851;45.648;9.004;2022-09-09T07:16:28;98662.97;;;20.20;63.28
59063;BME280;44851;45.648;9.004;2022-09-09T07:18:54;98661.91;;;20.28;63.93
59063;BME280;44851;45.648;9.004;2022-09-09T07:21:24;98663.53;;;20.29;64.68
59063;BME280;44851;45.648;9.004;2022-09-09T07:23:50;98659.09;;;20.22;63.63
59063;BME280;44851;45.648;9.004;2022-09-09T07:26:18;98655.41;;;20.30;64.06
59063;BME280;44851;45.648;9.004;2022-09-09T07:28:47;98659.25;;;20.34;64.07
59063;BME280;44851;45.648;9.004;2022-09-09T07:31:14;98662.50;;;20.36;63.75
59063;BME280;44851;45.648;9.004;2022-09-09T07:33:42;98664.34;;;20.36;62.84
59063;BME280;44851;45.648;9.004;2022-09-09T07:36:10;98666.75;;;20.44;63.33
59063;BME280;44851;45.648;9.004;2022-09-09T07:38:39;98672.50;;;20.28;63.97
59063;BME280;44851;45.648;9.004;2022-09-09T07:41:09;98664.28;;;20.49;63.14
59063;BME280;44851;45.648;9.004;2022-09-09T07:43:38;98661.81;;;20.54;63.55
59063;BME280;44851;45.648;9.004;2022-09-09T07:46:05;98662.81;;;20.60;63.65
59063;BME280;44851;45.648;9.004;2022-09-09T07:48:32;98659.34;;;20.59;63.38
59063;BME280;44851;45.648;9.004;2022-09-09T07:51:10;98664.59;;;20.66;62.36
59063;BME280;44851;45.648;9.004;2022-09-09T07:53:40;98655.47;;;20.93;62.13
59063;BME280;44851;45.648;9.004;2022-09-09T07:56:08;98657.31;;;20.93;60.45
59063;BME280;44851;45.648;9.004;2022-09-09T07:58:38;98662.00;;;21.22;59.07
59063;BME280;44851;45.648;9.004;2022-09-09T08:01:09;98664.44;;;21.49;60.09
59063;BME280;44851;45.648;9.004;2022-09-09T08:03:35;98666.47;;;21.47;57.11
59063;BME280;44851;45.648;9.004;2022-09-09T08:06:04;98660.56;;;21.70;58.57
59063;BME280;44851;45.648;9.004;2022-09-09T08:08:32;98660.75;;;21.93;57.76
59063;BME280;44851;45.648;9.004;2022-09-09T08:11:14;98663.16;;;21.95;57.13
59063;BME280;44851;45.648;9.004;2022-09-09T08:13:41;98664.41;;;22.11;55.77
59063;BME280;44851;45.648;9.004;2022-09-09T08:16:19;98667.13;;;22.59;55.07
59063;BME280;44851;45.648;9.004;2022-09-09T08:18:49;98671.34;;;22.78;52.50
59063;BME280;44851;45.648;9.004;2022-09-09T08:21:18;98676.13;;;23.00;54.27
59063;BME280;44851;45.648;9.004;2022-09-09T08:23:45;98671.31;;;23.20;54.02
59063;BME280;44851;45.648;9.004;2022-09-09T08:28:36;98676.69;;;23.67;51.25
59063;BME280;44851;45.648;9.004;2022-09-09T08:31:15;98666.47;;;24.11;51.19
59063;BME280;44851;45.648;9.004;2022-09-09T08:33:42;98671.03;;;24.27;51.58
59063;BME280;44851;45.648;9.004;2022-09-09T08:36:20;98671.66;;;24.58;51.82
59063;BME280;44851;45.648;9.004;2022-09-09T08:38:53;98661.78;;;25.04;51.54
59063;BME280;44851;45.648;9.004;2022-09-09T08:58:21;98666.22;;;24.24;50.91
59063;BME280;44851;45.648;9.004;2022-09-09T09:09:02;98672.50;;;24.75;50.18
59063;BME280;44851;45.648;9.004;2022-09-09T09:11:52;98667.94;;;24.59;50.18
59063;BME280;44851;45.648;9.004;2022-09-09T09:14:22;98674.91;;;24.60;50.99
59063;BME280;44851;45.648;9.004;2022-09-09T09:16:58;98677.03;;;24.34;49.54
59063;BME280;44851;45.648;9.004;2022-09-09T09:19:27;98680.06;;;23.98;52.23
59063;BME280;44851;45.648;9.004;2022-09-09T09:22:06;98674.31;;;24.29;51.06
59063;BME280;44851;45.648;9.004;2022-09-09T09:27:11;98671.59;;;24.41;50.04
59063;BME280;44851;45.648;9.004;2022-09-09T09:29:38;98671.53;;;24.53;50.36
59063;BME280;44851;45.648;9.004;2022-09-09T09:32:05;98675.09;;;24.70;49.82
59063;BME280;44851;45.648;9.004;2022-09-09T09:34:33;98671.53;;;24.81;49.28
59063;BME280;44851;45.648;9.004;2022-09-09T09:37:00;98676.75;;;25.05;48.81
59063;BME280;44851;45.648;9.004;2022-09-09T09:39:33;98674.19;;;25.43;47.45
59063;BME280;44851;45.648;9.004;2022-09-09T09:42:11;98666.34;;;25.92;45.83
59063;BME280;44851;45.648;9.004;2022-09-09T09:44:39;98671.03;;;26.24;46.22
59063;BME280;44851;45.648;9.004;2022-09-09T09:47:13;98671.41;;;25.72;46.54
59063;BME280;44851;45.648;9.004;2022-09-09T09:49:39;98675.34;;;25.48;47.81
59063;BME280;44851;45.648;9.004;2022-09-09T09:52:05;98674.81;;;25.51;47.94
59063;BME280;44851;45.648;9.004;2022-09-09T09:54:34;98678.22;;;25.12;47.97
59063;BME280;44851;45.648;9.004;2022-09-09T09:57:10;98669.69;;;25.27;47.55
59063;BME280;44851;45.648;9.004;2022-09-09T09:59:36;98672.91;;;25.29;47.23
59063;BME280;44851;45.648;9.004;2022-09-09T10:04:45;98668.44;;;25.18;48.15
59063;BME280;44851;45.648;9.004;2022-09-09T10:07:19;98661.03;;;25.20;48.05
59063;BME280;44851;45.648;9.004;2022-09-09T10:09:54;98660.41;;;24.84;47.75
59063;BME280;44851;45.648;9.004;2022-09-09T10:17:54;98654.47;;;25.11;48.01
59063;BME280;44851;45.648;9.004;2022-09-09T10:20:45;98654.94;;;25.25;48.37
59063;BME280;44851;45.648;9.004;2022-09-09T10:36:56;98646.16;;;24.62;51.35
59063;BME280;44851;45.648;9.004;2022-09-09T10:39:37;98651.28;;;24.80;48.60
59063;BME280;44851;45.648;9.004;2022-09-09T10:42:15;98648.44;;;24.70;50.21
59063;BME280;44851;45.648;9.004;2022-09-09T10:50:53;98634.38;;;24.58;50.24
59063;BME280;44851;45.648;9.004;2022-09-09T10:56:03;98633.91;;;24.49;49.84
59063;BME280;44851;45.648;9.004;2022-09-09T10:59:03;98633.81;;;24.44;49.61
59063;BME280;44851;45.648;9.004;2022-09-09T11:04:10;98626.13;;;24.59;46.42
59063;BME280;44851;45.648;9.004;2022-09-09T11:06:41;98617.34;;;24.47;48.08
59063;BME280;44851;45.648;9.004;2022-09-09T11:09:16;98613.78;;;24.42;46.13
59063;BME280;44851;45.648;9.004;2022-09-09T11:11:51;98611.28;;;24.80;45.81
59063;BME280;44851;45.648;9.004;2022-09-09T11:14:26;98618.00;;;25.72;43.83
59063;BME280;44851;45.648;9.004;2022-09-09T11:17:00;98613.78;;;25.76;44.05
59063;BME280;44851;45.648;9.004;2022-09-09T11:19:39;98615.00;;;25.13;44.49
59063;BME280;44851;45.648;9.004;2022-09-09T11:22:14;98617.75;;;25.01;45.37
59063;BME280;44851;45.648;9.004;2022-09-09T11:24:49;98618.47;;;24.97;44.88
59063;BME280;44851;45.648;9.004;2022-09-09T11:27:22;98604.19;;;25.03;44.23
59063;BME280;44851;45.648;9.004;2022-09-09T11:35:38;98599.91;;;26.72;40.77
59063;BME280;44851;45.648;9.004;2022-09-09T11:38:34;98603.81;;;26.91;41.09
59063;BME280;44851;45.648;9.004;2022-09-09T11:41:05;98604.59;;;27.19;39.85
59063;BME280;44851;45.648;9.004;2022-09-09T11:43:41;98597.09;;;27.21;39.68
59063;BME280;44851;45.648;9.004;2022-09-09T11:46:08;98597.50;;;27.40;39.01
59063;BME280;44851;45.648;9.004;2022-09-09T11:48:45;98596.03;;;27.64;40.41
59063;BME280;44851;45.648;9.004;2022-09-09T11:51:12;98596.81;;;27.65;38.33
59063;BME280;44851;45.648;9.004;2022-09-09T11:56:24;98594.25;;;27.90;40.06
59063;BME280;44851;45.648;9.004;2022-09-09T11:59:03;98589.91;;;27.74;38.96
59063;BME280;44851;45.648;9.004;2022-09-09T12:06:56;98590.38;;;28.34;37.46
59063;BME280;44851;45.648;9.004;2022-09-09T12:19:40;98578.06;;;29.40;35.08
59063;BME280;44851;45.648;9.004;2022-09-09T12:22:26;98569.34;;;29.78;36.07
59063;BME280;44851;45.648;9.004;2022-09-09T12:25:50;98568.63;;;28.15;34.94
59063;BME280;44851;45.648;9.004;2022-09-09T12:30:49;98568.25;;;27.81;36.30
59063;BME280;44851;45.648;9.004;2022-09-09T12:33:18;98559.81;;;27.57;37.08
59063;BME280;44851;45.648;9.004;2022-09-09T12:35:48;98562.34;;;27.26;36.95
59063;BME280;44851;45.648;9.004;2022-09-09T12:38:26;98562.53;;;27.14;38.40
59063;BME280;44851;45.648;9.004;2022-09-09T12:40:56;98566.03;;;27.15;39.34
59063;BME280;44851;45.648;9.004;2022-09-09T12:43:23;98562.63;;;27.77;38.03
59063;BME280;44851;45.648;9.004;2022-09-09T12:45:51;98561.13;;;28.17;37.73
59063;BME280;44851;45.648;9.004;2022-09-09T12:48:27;98548.78;;;28.16;35.42
59063;BME280;44851;45.648;9.004;2022-09-09T12:50:55;98543.75;;;28.50;36.16
59063;BME280;44851;45.648;9.004;2022-09-09T12:53:35;98544.03;;;28.38;35.82
59063;BME280;44851;45.648;9.004;2022-09-09T12:56:06;98541.28;;;28.13;35.12
59063;BME280;44851;45.648;9.004;2022-09-09T12:58:33;98540.00;;;28.25;33.97
59063;BME280;44851;45.648;9.004;2022-09-09T13:01:02;98538.13;;;28.36;33.47
59063;BME280;44851;45.648;9.004;2022-09-09T13:03:30;98536.00;;;28.53;34.97
59063;BME280;44851;45.648;9.004;2022-09-09T13:06:11;98530.63;;;28.38;34.82
59063;BME280;44851;45.648;9.004;2022-09-09T13:08:37;98527.41;;;28.36;35.20
59063;BME280;44851;45.648;9.004;2022-09-09T13:11:07;98520.47;;;28.56;33.95
59063;BME280;44851;45.648;9.004;2022-09-09T13:13:37;98523.91;;;28.97;35.80
59063;BME280;44851;45.648;9.004;2022-09-09T13:16:05;98521.19;;;28.15;34.86
59063;BME280;44851;45.648;9.004;2022-09-09T13:18:34;98518.28;;;28.63;34.58
59063;BME280;44851;45.648;9.004;2022-09-09T13:21:01;98519.34;;;28.87;35.25
59063;BME280;44851;45.648;9.004;2022-09-09T13:23:32;98512.09;;;28.98;33.98
59063;BME280;44851;45.648;9.004;2022-09-09T13:28:43;98513.47;;;28.85;33.38
59063;BME280;44851;45.648;9.004;2022-09-09T13:33:50;98509.16;;;28.28;33.85
59063;BME280;44851;45.648;9.004;2022-09-09T13:36:15;98506.50;;;28.59;34.47
59063;BME280;44851;45.648;9.004;2022-09-09T13:38:55;98507.06;;;28.50;35.13
59063;BME280;44851;45.648;9.004;2022-09-09T13:41:44;98488.78;;;28.73;34.23
59063;BME280;44851;45.648;9.004;2022-09-09T13:44:24;98491.72;;;28.71;34.18
59063;BME280;44851;45.648;9.004;2022-09-09T13:47:05;98487.72;;;28.59;33.32
59063;BME280;44851;45.648;9.004;2022-09-09T13:49:31;98492.00;;;28.14;34.34
59063;BME280;44851;45.648;9.004;2022-09-09T13:52:14;98489.28;;;27.98;34.81
59063;BME280;44851;45.648;9.004;2022-09-09T13:54:42;98485.28;;;28.16;34.71
59063;BME280;44851;45.648;9.004;2022-09-09T13:57:19;98483.16;;;28.39;35.06
59063;BME280;44851;45.648;9.004;2022-09-09T13:59:46;98486.91;;;28.27;34.45
59063;BME280;44851;45.648;9.004;2022-09-09T14:02:13;98482.38;;;28.48;34.08
59063;BME280;44851;45.648;9.004;2022-09-09T14:04:38;98483.16;;;28.28;34.10
59063;BME280;44851;45.648;9.004;2022-09-09T14:07:09;98468.97;;;28.43;33.27
59063;BME280;44851;45.648;9.004;2022-09-09T14:09:36;98472.16;;;28.66;34.22
59063;BME280;44851;45.648;9.004;2022-09-09T14:12:02;98472.97;;;28.66;34.41
59063;BME280;44851;45.648;9.004;2022-09-09T14:14:27;98471.09;;;28.67;32.76
59063;BME280;44851;45.648;9.004;2022-09-09T14:16:52;98465.19;;;28.80;33.26
59063;BME280;44851;45.648;9.004;2022-09-09T14:19:18;98466.81;;;28.76;33.92
59063;BME280;44851;45.648;9.004;2022-09-09T14:21:43;98456.06;;;28.76;33.45
59063;BME280;44851;45.648;9.004;2022-09-09T14:24:08;98457.69;;;28.67;34.23
59063;BME280;44851;45.648;9.004;2022-09-09T14:26:34;98457.94;;;28.80;34.22
59063;BME280;44851;45.648;9.004;2022-09-09T14:28:59;98464.13;;;28.81;33.90
59063;BME280;44851;45.648;9.004;2022-09-09T14:31:26;98461.19;;;28.77;33.73
59063;BME280;44851;45.648;9.004;2022-09-09T14:33:51;98463.06;;;28.82;34.76
59063;BME280;44851;45.648;9.004;2022-09-09T14:36:17;98458.19;;;28.74;33.13
59063;BME280;44851;45.648;9.004;2022-09-09T14:38:43;98461.44;;;28.66;32.58
59063;BME280;44851;45.648;9.004;2022-09-09T14:41:10;98465.75;;;28.62;32.51
59063;BME280;44851;45.648;9.004;2022-09-09T14:43:39;98454.47;;;28.44;33.04
59063;BME280;44851;45.648;9.004;2022-09-09T14:46:10;98462.00;;;28.47;33.85
59063;BME280;44851;45.648;9.004;2022-09-09T14:48:36;98462.00;;;28.42;32.89
59063;BME280;44851;45.648;9.004;2022-09-09T14:51:09;98468.97;;;28.53;33.52
59063;BME280;44851;45.648;9.004;2022-09-09T14:53:35;98460.91;;;28.43;32.79
59063;BME280;44851;45.648;9.004;2022-09-09T14:56:09;98459.03;;;28.44;32.99
59063;BME280;44851;45.648;9.004;2022-09-09T14:58:36;98464.16;;;28.20;33.06
59063;BME280;44851;45.648;9.004;2022-09-09T15:01:04;98463.31;;;28.14;33.39
59063;BME280;44851;45.648;9.004;2022-09-09T15:03:30;98456.63;;;28.37;34.29
59063;BME280;44851;45.648;9.004;2022-09-09T15:05:55;98456.88;;;28.15;33.76
59063;BME280;44851;45.648;9.004;2022-09-09T15:08:23;98448.81;;;27.90;33.69
59063;BME280;44851;45.648;9.004;2022-09-09T15:10:49;98455.53;;;27.97;33.94
59063;BME280;44851;45.648;9.004;2022-09-09T15:13:15;98454.97;;;28.00;33.30
59063;BME280;44851;45.648;9.004;2022-09-09T15:15:42;98457.94;;;27.99;34.62
59063;BME280;44851;45.648;9.004;2022-09-09T15:18:08;98455.22;;;27.79;35.44
59063;BME280;44851;45.648;9.004;2022-09-09T15:20:33;98455.06;;;27.33;34.73
59063;BME280;44851;45.648;9.004;2022-09-09T15:22:59;98444.16;;;27.49;34.95
59063;BME280;44851;45.648;9.004;2022-09-09T15:25:25;98446.84;;;27.55;33.88
59063;BME280;44851;45.648;9.004;2022-09-09T15:27:51;98441.50;;;27.55;33.99
59063;BME280;44851;45.648;9.004;2022-09-09T15:30:16;98446.31;;;27.58;34.66
59063;BME280;44851;45.648;9.004;2022-09-09T15:32:41;98440.94;;;27.58;34.51
59063;BME280;44851;45.648;9.004;2022-09-09T15:35:07;98441.50;;;27.55;34.06
59063;BME280;44851;45.648;9.004;2022-09-09T15:37:32;98434.50;;;27.38;34.25